Main page
METAR-TAF:

METAR-TAF

Airports :

Lille Airport

Lille, France

latitude: 50-34N, longitude: 003-06E, elevation: 48 m

Current weather observation

The report was made 13 minutes ago, at 19:00 UTC
Wind 10 kt from the Southeast
Temperature 16°C
Humidity 88%
Pressure 1010 hPa
Visibility 10 km or more
no clouds below 1500 m and no cumulonimbus

METAR: LFQQ 251900Z AUTO 13010KT CAVOK 16/14 Q1010 TEMPO 3000 RA

Time: 21:13 (19:13 UTC)

Forecast

The report was made 35 minutes ago, at 18:38 UTC
Forecast valid from 25 at 18 UTC to 26 at 24 UTC
Wind 10 kt from the East/Southeast
Visibility 10 km or more
Scattered clouds at a height of 3000 ft
Broken clouds at a height of 5000 ft
Temporary
from 25 at 18 UTC to 25 at 20 UTC
Visibility: 3000 m
rain
Probability 30% :
Temporary
from 26 at 00 UTC to 26 at 05 UTC
Visibility: 3000 m
Broken clouds at a height of 1000 ft
mist

TAF: LFQQ 251838Z 2518/2624 11010KT 9999 SCT030 BKN050 TEMPO 2518/2520 3000 RA PROB30 TEMPO 2600/2605 3000 BR BKN010

Weather observations and forecasts of more than 4000 airports (METAR and TAF reports).

The available stations are represented by yellow and red dots on the map.

Hover mouse over dot to see the name of the station.

Then click to see weather observations and forecasts.

To change the map : click on the green buttons with a black cross to zoom in, on the green button with a dash to zoom out, or on the green arrows for adjacent maps.


METAR-TAF: